To NAV CANADA Home Page Login to a new session Search on AWWS site Disclaimer Vers la page française équivalente Tips FAQ What's new on the site To the Forecasts and Observations / NOTAM section To "File a Flight Plan" website Publications and other links Update of the User's profile FIC Telephone Numbers My Weather Data Folder Route Weather Data Regional Weather Data Local Weather Data To the Forecasts and Observations / NOTAM section
Request Generated 05/19/2019 at 14:53:11 UTC . Weather information available at that time is displayed.

METAR/TAF

GOOSE BAY/NL    

SPECI CYYR 191434Z 36011G18KT 15SM BKN027 06/M00 A3009 RMK SC7 SH DIST E - SW SLP192=
METAR CYYR 191400Z 01011KT 15SM -SHRA BKN025 BKN034 OVC041 06/00 A3009 RMK SC5SC2SC1 SLP192=
SPECI CYYR 191354Z 02013KT 15SM -SHRA BKN025 BKN033 06/00 A3009 RMK SC6SC2 SLP192=
METAR CYYR 191300Z 35006KT 15SM FEW013 OVC021 04/M01 A3010 RMK SF1SC8 SLP194=
METAR CYYR 191200Z 32008KT 15SM FEW013 OVC019 03/M01 A3010 RMK SF1SC8 SH DIST SE SLP197=

TAF CYYR 191130Z 1912/2012 33010KT P6SM OVC015 TEMPO 1912/2003 OVC030
FM200300 35008KT P6SM -SNRA OVC015
RMK NXT FCST BY 191800Z=
Your time UTC time
Weather data provided by Environment Canada and NAV CANADA